createdAt,value
2022-12-01T00:05:38.302Z,40.03
2022-12-01T00:15:40.210Z,33.38
2022-12-01T00:25:43.536Z,34.47
2022-12-01T00:35:45.468Z,34.83
2022-12-01T00:45:48.805Z,29.55
2022-12-01T00:55:50.882Z,39.22
2022-12-01T01:05:54.217Z,35.78
2022-12-01T01:16:00.212Z,34.03
2022-12-01T01:26:05.799Z,29.90
2022-12-01T01:36:07.863Z,35.50
2022-12-01T01:46:13.399Z,37.58
2022-12-01T01:56:15.440Z,37.80
2022-12-01T02:06:19.084Z,33.35
2022-12-01T02:16:31.355Z,30.15
2022-12-01T02:26:42.207Z,30.20
2022-12-01T02:36:50.877Z,29.17
2022-12-01T02:46:57.576Z,28.65
2022-12-01T02:57:00.842Z,27.40
2022-12-01T03:07:13.194Z,29.20
2022-12-01T03:17:20.779Z,26.50
2022-12-01T03:27:27.385Z,29.95
2022-12-01T03:37:36.108Z,24.70
2022-12-01T03:47:39.009Z,21.38
2022-12-01T03:57:47.090Z,20.25
2022-12-01T04:07:49.029Z,18.48
2022-12-01T04:17:52.397Z,21.38
2022-12-01T04:27:54.300Z,24.30
2022-12-01T04:37:57.603Z,21.58
2022-12-01T04:47:59.520Z,24.80
2022-12-01T04:58:02.824Z,25.60
2022-12-01T05:08:04.980Z,24.25
2022-12-01T05:18:08.273Z,21.35
2022-12-01T05:28:10.189Z,20.40
2022-12-01T05:38:13.475Z,19.60
2022-12-01T05:48:15.769Z,20.75
2022-12-01T05:58:19.245Z,19.17
2022-12-01T06:08:21.146Z,21.10
2022-12-01T06:18:24.835Z,15.93
2022-12-01T06:28:26.828Z,21.63
2022-12-01T06:38:32.316Z,18.90
2022-12-01T06:48:34.280Z,20.67
2022-12-01T06:58:37.560Z,18.23
2022-12-01T07:08:39.511Z,21.85
2022-12-01T07:18:42.876Z,18.70
2022-12-01T07:28:45.697Z,16.48
2022-12-01T07:38:49.063Z,12.73
2022-12-01T07:48:51.670Z,14.73
2022-12-01T07:58:55.170Z,15.45
2022-12-01T08:08:57.251Z,14.15
2022-12-01T08:19:00.523Z,17.08
2022-12-01T08:29:02.556Z,17.45
2022-12-01T08:39:08.208Z,14.43
2022-12-01T08:49:10.198Z,19.55
2022-12-01T08:59:13.593Z,19.63
2022-12-01T09:09:17.782Z,17.00
2022-12-01T09:19:24.687Z,15.50
2022-12-01T09:29:27.357Z,18.52
2022-12-01T09:39:30.745Z,16.52
2022-12-01T09:49:41.860Z,18.38
2022-12-01T09:59:46.371Z,17.30
2022-12-01T10:09:54.687Z,13.77
2022-12-01T10:20:05.103Z,24.55
2022-12-01T10:30:10.763Z,14.88
2022-12-01T10:40:16.385Z,12.63
2022-12-01T10:50:26.478Z,15.38
2022-12-01T11:01:00.552Z,17.90
2022-12-01T11:11:03.164Z,15.10
2022-12-01T11:21:12.635Z,18.83
2022-12-01T11:31:15.153Z,16.77
2022-12-01T11:41:32.565Z,18.55
2022-12-01T11:51:35.328Z,16.58
2022-12-01T12:01:47.338Z,16.77
2022-12-01T12:11:58.614Z,15.23
2022-12-01T12:22:14.230Z,16.58
2022-12-01T12:32:34.842Z,16.88
2022-12-01T12:42:52.630Z,13.82
2022-12-01T12:52:59.796Z,12.98
2022-12-01T13:03:13.055Z,11.02
2022-12-01T13:13:24.627Z,13.10
2022-12-01T13:23:28.313Z,11.52
2022-12-01T13:33:32.266Z,22.92
2022-12-01T13:43:38.234Z,20.35
2022-12-01T13:53:55.793Z,15.27
2022-12-01T14:04:00.084Z,15.23
2022-12-01T14:14:25.717Z,12.55
2022-12-01T14:24:35.816Z,23.30
2022-12-01T14:34:38.837Z,15.63
2022-12-01T14:44:44.772Z,13.60
2022-12-01T14:54:49.273Z,13.52
2022-12-01T15:05:10.986Z,12.48
2022-12-01T15:15:23.602Z,15.40
2022-12-01T15:25:30.483Z,14.13
2022-12-01T15:35:32.763Z,19.92
2022-12-01T15:45:54.692Z,14.80
2022-12-01T15:55:59.286Z,12.98
2022-12-01T16:06:02.765Z,17.75
2022-12-01T16:16:21.357Z,20.00
2022-12-01T16:26:24.740Z,15.65
2022-12-01T16:36:27.013Z,13.98
2022-12-01T16:46:30.623Z,20.17
2022-12-01T16:56:32.778Z,28.63
2022-12-01T17:06:36.492Z,37.38
2022-12-01T17:16:38.735Z,32.72
2022-12-01T17:26:42.075Z,28.15
2022-12-01T17:36:44.024Z,32.83
2022-12-01T17:46:47.446Z,37.78
2022-12-01T17:56:49.425Z,39.28
2022-12-01T18:06:54.505Z,35.72
2022-12-01T18:16:56.663Z,38.83
2022-12-01T18:27:00.061Z,32.78
2022-12-01T18:37:02.993Z,44.20
2022-12-01T18:47:06.559Z,49.63
2022-12-01T18:57:08.525Z,48.08
2022-12-01T19:07:11.833Z,48.42
2022-12-01T19:17:13.758Z,43.03
2022-12-01T19:27:17.323Z,46.13
2022-12-01T19:37:19.281Z,49.95
2022-12-01T19:47:25.180Z,48.75
2022-12-01T19:57:27.100Z,65.90
2022-12-01T20:07:30.708Z,58.08
2022-12-01T20:17:35.577Z,62.65
2022-12-01T20:27:38.944Z,60.35
2022-12-01T20:37:41.473Z,61.67
2022-12-01T20:47:45.015Z,60.75
2022-12-01T20:57:46.961Z,68.93
2022-12-01T21:08:29.917Z,77.68
2022-12-01T21:18:42.112Z,73.78
2022-12-01T21:28:44.009Z,70.63
2022-12-01T21:38:50.327Z,64.68
2022-12-01T21:48:52.243Z,68.50
2022-12-01T21:58:58.686Z,57.95
2022-12-01T22:09:02.279Z,59.45
2022-12-01T22:19:22.988Z,60.95
2022-12-01T22:39:32.742Z,59.13
2022-12-01T22:49:34.664Z,57.97
2022-12-01T22:59:41.292Z,55.38
2022-12-01T23:09:44.594Z,50.28
2022-12-01T23:19:49.462Z,59.83
2022-12-01T23:29:51.404Z,53.58
2022-12-01T23:39:56.046Z,42.00
2022-12-01T23:50:00.697Z,39.95
